createdAt,value
2016-09-25T00:00:13.282Z,58.90
2016-09-25T00:01:13.480Z,58.70
2016-09-25T00:02:12.785Z,58.90
2016-09-25T00:03:10.089Z,is
2016-09-25T00:04:13.131Z,59.00
2016-09-25T00:05:10.568Z,is
2016-09-25T00:06:12.360Z,58.90
2016-09-25T00:07:13.519Z,58.90
2016-09-25T00:08:13.936Z,59.00
2016-09-25T00:09:13.394Z,59.00
2016-09-25T00:10:11.801Z,59.00
2016-09-25T00:11:10.466Z,is
2016-09-25T00:12:12.473Z,59.00
2016-09-25T00:13:12.365Z,59.60
2016-09-25T00:14:13.284Z,59.00
2016-09-25T00:15:12.744Z,59.00
2016-09-25T00:16:13.445Z,59.10
2016-09-25T00:17:10.118Z,is
2016-09-25T00:18:13.564Z,59.00
2016-09-25T00:19:12.803Z,59.00
2016-09-25T00:20:13.001Z,59.00
2016-09-25T00:21:12.469Z,59.00
2016-09-25T00:22:12.316Z,59.10
2016-09-25T00:23:12.550Z,59.00
2016-09-25T00:24:10.021Z,is
2016-09-25T00:25:10.603Z,is
2016-09-25T00:26:12.363Z,59.20
2016-09-25T00:27:13.899Z,59.30
2016-09-25T00:28:12.358Z,59.20
2016-09-25T00:29:13.847Z,59.20
2016-09-25T00:30:12.148Z,59.20
2016-09-25T00:31:12.112Z,59.20
2016-09-25T00:32:11.784Z,59.10
2016-09-25T00:33:13.880Z,59.20
2016-09-25T00:34:13.492Z,59.20
2016-09-25T00:35:13.426Z,59.40
2016-09-25T00:36:13.496Z,59.40
2016-09-25T00:37:09.548Z,is
2016-09-25T00:38:13.228Z,59.30
2016-09-25T00:39:13.769Z,59.50
2016-09-25T00:40:12.306Z,59.30
2016-09-25T00:41:12.727Z,59.30
2016-09-25T00:42:12.439Z,59.30
2016-09-25T00:43:14.159Z,59.40
2016-09-25T00:44:13.320Z,59.50
2016-09-25T00:45:13.151Z,59.40
2016-09-25T00:46:13.193Z,59.40
2016-09-25T00:47:11.716Z,is
2016-09-25T00:48:12.987Z,59.50
2016-09-25T00:49:13.136Z,59.40
2016-09-25T00:50:16.227Z,59.50
2016-09-25T00:51:14.943Z,59.60
2016-09-25T00:52:12.421Z,59.50
2016-09-25T00:53:11.932Z,59.40
2016-09-25T00:54:13.848Z,59.60
2016-09-25T00:55:13.151Z,59.50
2016-09-25T00:56:12.865Z,59.50
2016-09-25T00:57:13.396Z,59.50
2016-09-25T00:58:12.373Z,59.50
2016-09-25T00:59:12.800Z,59.40
2016-09-25T01:00:13.150Z,59.50
2016-09-25T01:01:10.184Z,is
2016-09-25T01:02:14.648Z,59.50
2016-09-25T01:03:09.644Z,is
2016-09-25T01:04:13.795Z,59.60
2016-09-25T01:05:13.319Z,59.50
2016-09-25T01:06:13.176Z,59.60
2016-09-25T01:07:14.514Z,59.60
2016-09-25T01:08:13.882Z,59.60
2016-09-25T01:09:13.311Z,59.50
2016-09-25T01:10:12.175Z,59.70
2016-09-25T01:11:13.685Z,59.70
2016-09-25T01:12:13.336Z,59.70
2016-09-25T01:13:11.848Z,59.70
2016-09-25T01:14:13.960Z,59.70
2016-09-25T01:15:14.904Z,59.80
2016-09-25T01:16:14.541Z,59.70
2016-09-25T01:17:13.195Z,59.60
2016-09-25T01:18:13.176Z,59.70
2016-09-25T01:19:12.427Z,59.70
2016-09-25T01:20:15.291Z,59.70
2016-09-25T01:21:13.650Z,59.90
2016-09-25T01:22:13.366Z,59.80
2016-09-25T01:23:13.319Z,59.70
2016-09-25T01:24:15.483Z,is
2016-09-25T01:25:12.466Z,59.80
2016-09-25T01:26:12.952Z,59.80
2016-09-25T01:27:13.476Z,59.90
2016-09-25T01:28:12.802Z,59.90
2016-09-25T01:29:12.785Z,59.80
2016-09-25T01:30:13.785Z,60.00
2016-09-25T01:31:10.496Z,is
2016-09-25T01:32:13.410Z,59.90
2016-09-25T01:33:12.252Z,59.70
2016-09-25T01:34:13.985Z,59.90
2016-09-25T01:35:12.909Z,59.80
2016-09-25T01:36:12.373Z,59.90
2016-09-25T01:37:12.138Z,59.80
2016-09-25T01:38:13.801Z,59.90
2016-09-25T01:39:14.235Z,59.90
2016-09-25T01:40:13.632Z,59.90
2016-09-25T01:41:11.824Z,59.90
2016-09-25T01:42:13.541Z,59.90
2016-09-25T01:43:13.310Z,59.90
2016-09-25T01:44:14.907Z,59.80
2016-09-25T01:45:12.154Z,60.00
2016-09-25T01:46:13.224Z,60.00
2016-09-25T01:47:13.662Z,60.00
2016-09-25T01:48:13.255Z,59.90
2016-09-25T01:49:09.896Z,is
2016-09-25T01:50:13.134Z,60.00
2016-09-25T01:51:15.999Z,60.00
2016-09-25T01:52:14.433Z,60.10
2016-09-25T01:53:14.887Z,60.00
2016-09-25T01:54:11.906Z,60.00
2016-09-25T01:55:12.552Z,60.00
2016-09-25T01:56:13.394Z,60.00
2016-09-25T01:57:13.154Z,60.20
2016-09-25T01:58:11.947Z,60.10
2016-09-25T01:59:13.113Z,60.10
2016-09-25T02:00:12.999Z,60.10
2016-09-25T02:01:13.474Z,60.10
2016-09-25T02:02:12.764Z,60.10
2016-09-25T02:03:12.210Z,60.00
2016-09-25T02:04:14.754Z,60.30
2016-09-25T02:05:14.778Z,60.20
2016-09-25T02:06:13.839Z,60.30
2016-09-25T02:07:14.352Z,60.20
2016-09-25T02:08:14.923Z,60.30
2016-09-25T02:09:12.202Z,60.10
2016-09-25T02:10:13.244Z,60.20
2016-09-25T02:11:09.514Z,is
2016-09-25T02:12:12.988Z,60.10
2016-09-25T02:13:12.921Z,60.30
2016-09-25T02:14:13.760Z,60.30
2016-09-25T02:15:13.728Z,60.20
2016-09-25T02:16:15.057Z,60.30
2016-09-25T02:17:14.117Z,60.20
2016-09-25T02:18:13.424Z,60.10
2016-09-25T02:19:11.985Z,60.20
2016-09-25T02:20:13.005Z,60.20
2016-09-25T02:21:12.143Z,60.10
2016-09-25T02:22:13.709Z,60.30
2016-09-25T02:23:13.909Z,60.50
2016-09-25T02:24:12.551Z,60.20
2016-09-25T02:25:13.437Z,60.20
2016-09-25T02:26:13.141Z,60.20
2016-09-25T02:27:13.392Z,60.40
2016-09-25T02:28:13.212Z,60.40
2016-09-25T02:29:11.102Z,is
2016-09-25T02:30:13.221Z,60.40
2016-09-25T02:31:13.292Z,60.40
2016-09-25T02:32:13.408Z,60.20
2016-09-25T02:33:11.922Z,60.30
2016-09-25T02:34:13.121Z,60.20
2016-09-25T02:35:13.439Z,60.40
2016-09-25T02:36:13.665Z,60.30
2016-09-25T02:37:10.622Z,is
2016-09-25T02:38:13.048Z,60.20
2016-09-25T02:39:12.700Z,60.40
2016-09-25T02:40:14.246Z,60.40
2016-09-25T02:41:13.715Z,60.40
2016-09-25T02:42:13.954Z,60.30
2016-09-25T02:43:13.502Z,60.40
2016-09-25T02:44:12.182Z,60.40
2016-09-25T02:45:13.183Z,60.30
2016-09-25T02:46:13.238Z,60.70
2016-09-25T02:47:14.956Z,60.40
2016-09-25T02:48:14.598Z,60.60
2016-09-25T02:49:09.661Z,is
2016-09-25T02:50:13.495Z,60.20
2016-09-25T02:51:10.718Z,is
2016-09-25T02:52:13.029Z,60.20
2016-09-25T02:53:09.369Z,is
2016-09-25T02:54:12.982Z,60.40
2016-09-25T02:55:11.853Z,60.50
2016-09-25T02:56:14.182Z,60.50
2016-09-25T02:57:12.919Z,60.40
2016-09-25T02:58:13.217Z,60.40
2016-09-25T02:59:11.917Z,60.40
2016-09-25T03:00:13.037Z,60.40
2016-09-25T03:01:13.027Z,60.50
2016-09-25T03:02:12.585Z,60.50
2016-09-25T03:03:13.399Z,60.40
2016-09-25T03:04:13.193Z,60.50
2016-09-25T03:05:12.298Z,60.50
2016-09-25T03:06:13.308Z,60.40
2016-09-25T03:07:12.270Z,60.50
2016-09-25T03:08:12.011Z,60.40
2016-09-25T03:09:12.281Z,60.40
2016-09-25T03:10:12.812Z,60.40
2016-09-25T03:11:13.931Z,60.40
2016-09-25T03:12:10.000Z,is
2016-09-25T03:13:13.678Z,60.40
2016-09-25T03:14:14.357Z,60.50
2016-09-25T03:15:12.940Z,60.50
2016-09-25T03:16:13.428Z,60.50
2016-09-25T03:17:13.003Z,60.50
2016-09-25T03:18:12.598Z,60.50
2016-09-25T03:19:13.620Z,60.50
2016-09-25T03:20:14.311Z,60.40
2016-09-25T03:21:13.370Z,60.50
2016-09-25T03:22:12.002Z,60.50
2016-09-25T03:23:12.334Z,60.30
2016-09-25T03:24:13.528Z,60.40
2016-09-25T03:25:11.967Z,60.40
2016-09-25T03:26:14.849Z,60.50
2016-09-25T03:27:13.648Z,60.50
2016-09-25T03:28:12.600Z,60.50
2016-09-25T03:29:13.740Z,60.50
2016-09-25T03:30:12.582Z,60.40
2016-09-25T03:31:12.624Z,60.40
2016-09-25T03:32:13.310Z,60.70
2016-09-25T03:33:13.202Z,60.50
2016-09-25T03:34:10.312Z,is
2016-09-25T03:35:13.473Z,60.50
2016-09-25T03:36:12.951Z,60.50
2016-09-25T03:37:12.559Z,60.40
2016-09-25T03:38:13.768Z,60.40
2016-09-25T03:39:12.832Z,60.50
2016-09-25T03:40:10.179Z,is
2016-09-25T03:41:12.919Z,60.40
2016-09-25T03:42:11.637Z,60.50
2016-09-25T03:43:12.841Z,60.40
2016-09-25T03:44:12.609Z,60.40
2016-09-25T03:45:14.160Z,60.40
2016-09-25T03:46:13.463Z,60.40
2016-09-25T03:47:12.259Z,60.50
2016-09-25T03:48:12.648Z,60.50
2016-09-25T03:49:13.158Z,60.50
2016-09-25T03:50:12.957Z,60.60
2016-09-25T03:51:13.205Z,60.50
2016-09-25T03:52:12.627Z,60.60
2016-09-25T03:53:13.686Z,60.50
2016-09-25T03:54:10.119Z,is
2016-09-25T03:55:13.546Z,60.60
2016-09-25T03:56:11.953Z,60.50
2016-09-25T03:57:14.084Z,60.50
2016-09-25T03:58:14.096Z,60.50
2016-09-25T03:59:13.277Z,60.50
2016-09-25T04:00:12.736Z,60.50
2016-09-25T04:01:11.603Z,is
2016-09-25T04:02:12.335Z,60.50
2016-09-25T04:03:14.454Z,60.50
2016-09-25T04:04:10.216Z,is
2016-09-25T04:05:13.264Z,60.50
2016-09-25T04:06:14.856Z,60.60
2016-09-25T04:07:13.075Z,60.40
2016-09-25T04:08:11.993Z,60.60
2016-09-25T04:09:12.973Z,60.40
2016-09-25T04:10:13.154Z,60.60
2016-09-25T04:11:12.783Z,60.50
2016-09-25T04:12:12.372Z,60.50
2016-09-25T04:13:12.778Z,61.10
2016-09-25T04:14:13.171Z,60.60
2016-09-25T04:15:12.569Z,60.40
2016-09-25T04:16:12.645Z,60.50
2016-09-25T04:17:12.024Z,60.30
2016-09-25T04:18:10.773Z,is
2016-09-25T04:19:12.665Z,60.50
2016-09-25T04:20:13.446Z,60.60
2016-09-25T04:21:12.061Z,60.50
2016-09-25T04:22:12.623Z,60.50
2016-09-25T04:23:10.870Z,is
2016-09-25T04:24:12.677Z,60.60
2016-09-25T04:25:16.623Z,60.50
2016-09-25T04:26:16.463Z,60.40
2016-09-25T04:27:16.821Z,60.60
2016-09-25T04:28:13.904Z,60.60
2016-09-25T04:29:13.075Z,60.50
2016-09-25T04:30:12.603Z,60.50
2016-09-25T04:31:13.173Z,60.50
2016-09-25T04:32:13.172Z,60.50
2016-09-25T04:33:13.533Z,60.50
2016-09-25T04:34:12.790Z,60.60
2016-09-25T04:35:12.961Z,60.50
2016-09-25T04:36:11.116Z,is
2016-09-25T04:37:12.024Z,60.50
2016-09-25T04:38:13.215Z,60.50
2016-09-25T04:39:13.630Z,60.60
2016-09-25T04:40:12.056Z,60.60
2016-09-25T04:41:14.144Z,60.50
2016-09-25T04:42:12.372Z,60.60
2016-09-25T04:43:12.948Z,60.70
2016-09-25T04:44:10.377Z,is
2016-09-25T04:45:12.452Z,60.50
2016-09-25T04:46:13.556Z,60.50
2016-09-25T04:47:12.532Z,60.50
2016-09-25T04:48:13.163Z,60.60
2016-09-25T04:49:12.777Z,60.50
2016-09-25T04:50:14.032Z,60.60
2016-09-25T04:51:13.934Z,60.90
2016-09-25T04:52:13.057Z,60.50
2016-09-25T04:53:12.608Z,60.60
2016-09-25T04:54:12.802Z,60.50
2016-09-25T04:55:13.319Z,60.50
2016-09-25T04:56:13.940Z,60.70
2016-09-25T04:57:12.942Z,60.50
2016-09-25T04:58:12.833Z,60.60
2016-09-25T04:59:12.027Z,60.70
2016-09-25T05:00:12.367Z,60.80
2016-09-25T05:01:12.600Z,60.90
2016-09-25T05:02:13.790Z,60.80
2016-09-25T05:03:12.715Z,60.70
2016-09-25T05:04:13.112Z,60.70
2016-09-25T05:05:13.015Z,60.90
2016-09-25T05:06:12.986Z,60.80
2016-09-25T05:07:13.269Z,60.90
2016-09-25T05:08:10.331Z,is
2016-09-25T05:09:13.175Z,61.00
2016-09-25T05:10:12.655Z,60.90
2016-09-25T05:11:12.477Z,61.00
2016-09-25T05:12:12.790Z,61.00
2016-09-25T05:13:12.451Z,61.00
2016-09-25T05:14:12.536Z,60.90
2016-09-25T05:15:12.633Z,60.90
2016-09-25T05:16:15.579Z,60.40
2016-09-25T05:17:13.157Z,61.00
2016-09-25T05:18:13.433Z,61.00
2016-09-25T05:19:13.465Z,61.00
2016-09-25T05:20:12.144Z,61.00
2016-09-25T05:21:12.522Z,60.90
2016-09-25T05:22:14.015Z,61.00
2016-09-25T05:23:13.174Z,60.90
2016-09-25T05:24:13.278Z,60.80
2016-09-25T05:25:13.535Z,60.80
2016-09-25T05:26:13.289Z,60.90
2016-09-25T05:27:12.132Z,60.80
2016-09-25T05:28:13.585Z,60.80
2016-09-25T05:29:13.125Z,60.60
2016-09-25T05:30:15.357Z,60.50
2016-09-25T05:31:13.183Z,60.50
2016-09-25T05:32:10.176Z,is
2016-09-25T05:33:13.784Z,60.50
2016-09-25T05:34:13.289Z,60.50
2016-09-25T05:35:12.467Z,60.30
2016-09-25T05:36:12.098Z,60.40
2016-09-25T05:37:13.861Z,60.40
2016-09-25T05:38:12.044Z,60.30
2016-09-25T05:39:13.146Z,60.40
2016-09-25T05:40:12.395Z,60.30
2016-09-25T05:41:13.385Z,60.30
2016-09-25T05:42:12.099Z,60.30
2016-09-25T05:43:12.855Z,60.30
2016-09-25T05:44:12.453Z,60.30
2016-09-25T05:45:12.106Z,60.20
2016-09-25T05:46:14.078Z,60.40
2016-09-25T05:47:12.427Z,60.10
2016-09-25T05:48:14.112Z,60.60
2016-09-25T05:49:13.645Z,60.50
2016-09-25T05:50:12.873Z,60.30
2016-09-25T05:51:13.215Z,60.20
2016-09-25T05:52:12.348Z,60.20
2016-09-25T05:53:13.465Z,60.40
2016-09-25T05:54:12.415Z,60.30
2016-09-25T05:55:13.164Z,60.60
2016-09-25T05:56:13.297Z,60.30
2016-09-25T05:57:11.434Z,60.30
2016-09-25T05:58:13.403Z,59.60
2016-09-25T05:59:13.450Z,60.40
2016-09-25T06:00:13.495Z,60.30
2016-09-25T06:01:13.139Z,60.30
2016-09-25T06:02:14.789Z,60.40
2016-09-25T06:03:12.498Z,60.20
2016-09-25T06:04:17.897Z,60.20
2016-09-25T06:05:13.282Z,60.00
2016-09-25T06:06:12.425Z,59.90
2016-09-25T06:07:12.512Z,59.90
2016-09-25T06:08:12.525Z,59.80
2016-09-25T06:09:14.202Z,59.50
2016-09-25T06:10:18.562Z,59.70
2016-09-25T06:11:12.116Z,59.80
2016-09-25T06:12:12.847Z,60.00
2016-09-25T06:13:13.299Z,59.90
2016-09-25T06:14:12.747Z,59.80
2016-09-25T06:15:12.868Z,59.90
2016-09-25T06:16:12.994Z,59.80
2016-09-25T06:17:13.033Z,59.80
2016-09-25T06:18:13.014Z,59.80
2016-09-25T06:19:12.786Z,59.80
2016-09-25T06:20:13.215Z,59.70
2016-09-25T06:21:12.496Z,59.90
2016-09-25T06:22:12.077Z,59.80
2016-09-25T06:23:12.446Z,59.70
2016-09-25T06:24:12.407Z,59.70
2016-09-25T06:25:12.788Z,59.70
2016-09-25T06:26:12.251Z,59.70
2016-09-25T06:27:13.516Z,59.80
2016-09-25T06:28:12.769Z,59.80
2016-09-25T06:29:14.169Z,59.90
2016-09-25T06:30:12.573Z,59.80
2016-09-25T06:31:12.788Z,59.70
2016-09-25T06:32:13.796Z,59.70
2016-09-25T06:33:13.160Z,59.70
2016-09-25T06:34:11.813Z,59.60
2016-09-25T06:35:14.196Z,59.60
2016-09-25T06:36:12.919Z,59.60
2016-09-25T06:37:12.468Z,59.10
2016-09-25T06:38:12.969Z,59.10
2016-09-25T06:39:14.386Z,59.60
2016-09-25T06:40:14.400Z,59.40
2016-09-25T06:41:12.560Z,59.60
2016-09-25T06:42:13.933Z,59.60
2016-09-25T06:43:12.979Z,59.50
2016-09-25T06:44:12.872Z,59.50
2016-09-25T06:45:13.346Z,59.60
2016-09-25T06:46:11.923Z,59.40
2016-09-25T06:47:12.862Z,59.50
2016-09-25T06:48:12.584Z,59.30
2016-09-25T06:49:12.630Z,59.60
2016-09-25T06:50:12.214Z,59.40
2016-09-25T06:51:10.457Z,is
2016-09-25T06:52:12.554Z,59.50
2016-09-25T06:53:14.146Z,59.00
2016-09-25T06:54:13.536Z,59.30
2016-09-25T06:55:12.248Z,59.40
2016-09-25T06:56:12.462Z,59.50
2016-09-25T06:57:12.187Z,59.50
2016-09-25T06:58:13.693Z,59.60
2016-09-25T06:59:13.280Z,59.70
2016-09-25T07:00:12.943Z,59.50
2016-09-25T07:01:18.904Z,59.80
2016-09-25T07:02:12.292Z,59.50
2016-09-25T07:03:12.168Z,59.60
2016-09-25T07:04:12.094Z,59.50
2016-09-25T07:05:10.065Z,is
2016-09-25T07:06:11.853Z,59.60
2016-09-25T07:07:13.235Z,59.70
2016-09-25T07:08:12.990Z,59.60
2016-09-25T07:09:12.629Z,59.70
2016-09-25T07:10:10.223Z,is
2016-09-25T07:11:14.213Z,59.50
2016-09-25T07:12:13.176Z,59.80
2016-09-25T07:13:12.564Z,59.90
2016-09-25T07:14:12.565Z,60.10
2016-09-25T07:15:12.565Z,60.30
2016-09-25T07:16:13.277Z,60.10
2016-09-25T07:17:13.543Z,59.90
2016-09-25T07:18:12.355Z,59.10
2016-09-25T07:19:13.117Z,59.40
2016-09-25T07:20:11.943Z,59.20
2016-09-25T07:21:12.305Z,59.10
2016-09-25T07:22:11.900Z,59.70
2016-09-25T07:23:13.651Z,59.60
2016-09-25T07:24:12.617Z,59.70
2016-09-25T07:25:14.270Z,59.70
2016-09-25T07:26:12.052Z,59.70
2016-09-25T07:27:12.817Z,59.90
2016-09-25T07:28:12.924Z,59.90
2016-09-25T07:29:12.536Z,59.70
2016-09-25T07:30:12.993Z,59.90
2016-09-25T07:31:13.689Z,59.90
2016-09-25T07:32:13.772Z,60.20
2016-09-25T07:33:17.030Z,59.90
2016-09-25T07:34:13.936Z,60.00
2016-09-25T07:35:13.305Z,60.10
2016-09-25T07:36:12.973Z,60.10
2016-09-25T07:37:12.206Z,60.10
2016-09-25T07:38:13.819Z,60.20
2016-09-25T07:39:12.649Z,60.20
2016-09-25T07:40:13.025Z,60.10
2016-09-25T07:41:12.990Z,60.20
2016-09-25T07:42:14.262Z,60.00
2016-09-25T07:43:13.003Z,60.00
2016-09-25T07:44:11.588Z,60.00
2016-09-25T07:45:12.329Z,60.00
2016-09-25T07:46:12.211Z,60.00
2016-09-25T07:47:13.247Z,60.00
2016-09-25T07:48:13.927Z,60.00
2016-09-25T07:49:13.181Z,60.00
2016-09-25T07:50:12.357Z,59.90
2016-09-25T07:51:13.590Z,60.00
2016-09-25T07:52:14.835Z,59.90
2016-09-25T07:53:14.675Z,59.80
2016-09-25T07:54:11.624Z,59.80
2016-09-25T07:55:12.296Z,59.90
2016-09-25T07:56:10.303Z,is
2016-09-25T07:57:13.039Z,59.90
2016-09-25T07:58:09.477Z,is
2016-09-25T07:59:13.014Z,59.80
2016-09-25T08:00:13.052Z,59.70
2016-09-25T08:01:13.062Z,59.60
2016-09-25T08:02:11.928Z,59.50
2016-09-25T08:03:13.328Z,59.50
2016-09-25T08:04:14.415Z,59.50
2016-09-25T08:05:12.264Z,59.50
2016-09-25T08:06:12.392Z,59.50
2016-09-25T08:07:13.239Z,59.60
2016-09-25T08:08:11.979Z,59.50
2016-09-25T08:09:12.969Z,59.50
2016-09-25T08:10:13.486Z,59.50
2016-09-25T08:11:12.334Z,59.60
2016-09-25T08:12:11.969Z,59.60
2016-09-25T08:13:13.380Z,59.80
2016-09-25T08:14:12.292Z,59.80
2016-09-25T08:15:11.968Z,59.90
2016-09-25T08:16:12.676Z,59.70
2016-09-25T08:17:12.437Z,59.60
2016-09-25T08:18:13.095Z,59.80
2016-09-25T08:19:14.557Z,60.00
2016-09-25T08:20:12.288Z,60.00
2016-09-25T08:21:13.073Z,60.10
2016-09-25T08:22:11.060Z,is
2016-09-25T08:23:12.413Z,59.90
2016-09-25T08:24:12.496Z,59.90
2016-09-25T08:25:13.767Z,60.00
2016-09-25T08:26:10.573Z,is
2016-09-25T08:27:14.025Z,60.10
2016-09-25T08:28:12.588Z,60.00
2016-09-25T08:29:12.084Z,59.90
2016-09-25T08:30:12.015Z,59.70
2016-09-25T08:31:12.171Z,59.70
2016-09-25T08:32:11.986Z,59.70
2016-09-25T08:33:14.473Z,59.90
2016-09-25T08:34:12.261Z,59.70
2016-09-25T08:35:12.808Z,59.90
2016-09-25T08:36:11.939Z,59.80
2016-09-25T08:37:13.378Z,59.90
2016-09-25T08:38:12.292Z,59.90
2016-09-25T08:39:12.694Z,59.80
2016-09-25T08:40:12.300Z,59.80
2016-09-25T08:41:12.037Z,60.10
2016-09-25T08:42:12.289Z,59.90
2016-09-25T08:43:11.659Z,59.90
2016-09-25T08:44:15.197Z,60.00
2016-09-25T08:45:13.712Z,60.00
2016-09-25T08:46:14.420Z,60.00
2016-09-25T08:47:11.599Z,60.10
2016-09-25T08:48:14.593Z,60.00
2016-09-25T08:49:12.749Z,60.00
2016-09-25T08:50:12.306Z,60.00
2016-09-25T08:51:13.102Z,60.00
2016-09-25T08:52:08.925Z,is
2016-09-25T08:53:10.240Z,is
2016-09-25T08:54:12.693Z,59.80
2016-09-25T08:55:12.085Z,59.90
2016-09-25T08:56:12.501Z,59.90
2016-09-25T08:57:15.336Z,59.80
2016-09-25T08:58:13.418Z,60.00
2016-09-25T08:59:10.076Z,is
2016-09-25T09:00:13.959Z,60.00
2016-09-25T09:01:11.145Z,is
2016-09-25T09:02:13.590Z,59.90
2016-09-25T09:03:09.765Z,is
2016-09-25T09:04:12.983Z,59.90
2016-09-25T09:05:13.426Z,59.90
2016-09-25T09:06:13.036Z,59.80
2016-09-25T09:07:12.009Z,59.80
2016-09-25T09:08:12.381Z,59.90
2016-09-25T09:09:11.659Z,59.70
2016-09-25T09:10:12.371Z,59.80
2016-09-25T09:11:13.093Z,59.80
2016-09-25T09:12:12.048Z,59.80
2016-09-25T09:13:13.500Z,59.90
2016-09-25T09:14:11.743Z,59.80
2016-09-25T09:15:13.730Z,59.20
2016-09-25T09:16:12.135Z,59.80
2016-09-25T09:17:10.269Z,is
2016-09-25T09:18:12.376Z,59.90
2016-09-25T09:19:12.996Z,59.90
2016-09-25T09:20:12.619Z,59.70
2016-09-25T09:21:13.133Z,59.80
2016-09-25T09:22:14.071Z,59.90
2016-09-25T09:23:13.076Z,59.80
2016-09-25T09:24:12.393Z,59.70
2016-09-25T09:25:11.741Z,59.70
2016-09-25T09:26:13.409Z,59.90
2016-09-25T09:27:14.609Z,60.30
2016-09-25T09:28:12.700Z,59.80
2016-09-25T09:29:12.398Z,59.90
2016-09-25T09:30:12.790Z,59.90
2016-09-25T09:31:12.855Z,59.80
2016-09-25T09:32:12.620Z,59.80
2016-09-25T09:33:12.089Z,59.90
2016-09-25T09:34:12.377Z,60.00
2016-09-25T09:35:10.280Z,is
2016-09-25T09:36:12.446Z,59.80
2016-09-25T09:37:12.013Z,59.90
2016-09-25T09:38:12.165Z,59.90
2016-09-25T09:39:13.187Z,59.80
2016-09-25T09:40:12.921Z,60.00
2016-09-25T09:41:12.437Z,59.90
2016-09-25T09:42:14.090Z,60.00
2016-09-25T09:43:13.696Z,60.00
2016-09-25T09:44:13.279Z,59.50
2016-09-25T09:45:13.168Z,59.80
2016-09-25T09:46:13.019Z,59.70
2016-09-25T09:47:13.876Z,59.90
2016-09-25T09:48:12.332Z,59.80
2016-09-25T09:49:13.305Z,59.80
2016-09-25T09:50:13.721Z,59.80
2016-09-25T09:51:13.440Z,59.80
2016-09-25T09:52:13.588Z,59.80
2016-09-25T09:53:09.137Z,is
2016-09-25T09:54:12.478Z,59.70
2016-09-25T09:55:13.121Z,59.70
2016-09-25T09:56:13.091Z,59.90
2016-09-25T09:57:13.709Z,59.90
2016-09-25T09:58:12.730Z,59.70
2016-09-25T09:59:12.071Z,59.80
2016-09-25T10:00:14.836Z,59.80
2016-09-25T10:01:12.165Z,59.70
2016-09-25T10:02:12.030Z,59.60
2016-09-25T10:03:12.360Z,59.70
2016-09-25T10:04:12.399Z,59.60
2016-09-25T10:05:13.807Z,59.00
2016-09-25T10:06:13.201Z,59.60
2016-09-25T10:07:12.493Z,59.60
2016-09-25T10:08:12.696Z,59.60
2016-09-25T10:09:13.780Z,59.80
2016-09-25T10:10:10.410Z,is
2016-09-25T10:11:13.531Z,59.70
2016-09-25T10:12:12.184Z,59.50
2016-09-25T10:13:12.760Z,59.50
2016-09-25T10:14:12.593Z,59.50
2016-09-25T10:15:12.110Z,59.50
2016-09-25T10:16:12.457Z,59.50
2016-09-25T10:17:09.946Z,is
2016-09-25T10:18:12.564Z,59.50
2016-09-25T10:19:14.256Z,59.50
2016-09-25T10:20:12.438Z,59.60
2016-09-25T10:21:12.410Z,59.60
2016-09-25T10:22:11.840Z,59.60
2016-09-25T10:23:13.450Z,59.50
2016-09-25T10:24:12.438Z,59.60
2016-09-25T10:25:10.524Z,is
2016-09-25T10:26:10.893Z,is
2016-09-25T10:27:12.500Z,59.50
2016-09-25T10:28:12.223Z,59.50
2016-09-25T10:29:12.528Z,59.50
2016-09-25T10:30:13.163Z,59.40
2016-09-25T10:31:11.844Z,59.40
2016-09-25T10:32:14.019Z,59.50
2016-09-25T10:33:12.790Z,59.40
2016-09-25T10:34:13.780Z,59.50
2016-09-25T10:35:13.799Z,59.60
2016-09-25T10:36:13.178Z,59.50
2016-09-25T10:37:08.961Z,is
2016-09-25T10:38:11.973Z,59.50
2016-09-25T10:39:11.781Z,59.40
2016-09-25T10:40:12.549Z,59.50
2016-09-25T10:41:12.119Z,59.40
2016-09-25T10:42:11.790Z,59.50
2016-09-25T10:43:12.576Z,59.40
2016-09-25T10:44:11.950Z,59.50
2016-09-25T10:45:12.780Z,59.40
2016-09-25T10:46:12.820Z,59.40
2016-09-25T10:47:13.137Z,59.50
2016-09-25T10:48:12.995Z,59.50
2016-09-25T10:49:12.650Z,59.40
2016-09-25T10:50:12.422Z,59.40
2016-09-25T10:51:14.696Z,59.50
2016-09-25T10:52:11.877Z,59.40
2016-09-25T10:53:12.169Z,59.40
2016-09-25T10:54:12.269Z,59.40
2016-09-25T10:55:14.671Z,59.50
2016-09-25T10:56:13.509Z,59.50
2016-09-25T10:57:11.810Z,59.40
2016-09-25T10:58:12.224Z,59.40
2016-09-25T10:59:13.207Z,59.50
2016-09-25T11:00:13.193Z,59.50
2016-09-25T11:01:12.170Z,59.40
2016-09-25T11:02:11.907Z,59.30
2016-09-25T11:03:13.344Z,59.30
2016-09-25T11:04:12.570Z,59.50
2016-09-25T11:05:13.161Z,59.40
2016-09-25T11:06:12.170Z,59.30
2016-09-25T11:07:13.051Z,59.40
2016-09-25T11:08:13.304Z,59.40
2016-09-25T11:09:12.778Z,59.40
2016-09-25T11:10:13.048Z,59.30
2016-09-25T11:11:14.984Z,59.50
2016-09-25T11:12:15.308Z,59.30
2016-09-25T11:13:12.899Z,59.30
2016-09-25T11:14:13.838Z,59.30
2016-09-25T11:15:13.222Z,59.30
2016-09-25T11:16:12.474Z,59.30
2016-09-25T11:17:13.160Z,59.40
2016-09-25T11:18:13.609Z,59.40
2016-09-25T11:19:13.244Z,59.50
2016-09-25T11:20:13.240Z,59.40
2016-09-25T11:21:13.600Z,59.30
2016-09-25T11:22:10.461Z,is
2016-09-25T11:23:12.250Z,59.30
2016-09-25T11:24:12.043Z,59.20
2016-09-25T11:25:13.790Z,59.30
2016-09-25T11:26:13.293Z,59.30
2016-09-25T11:27:12.502Z,59.30
2016-09-25T11:28:13.676Z,59.30
2016-09-25T11:29:12.917Z,59.20
2016-09-25T11:30:13.098Z,59.20
2016-09-25T11:31:13.929Z,59.20
2016-09-25T11:32:13.583Z,59.30
2016-09-25T11:33:13.497Z,59.30
2016-09-25T11:34:12.211Z,59.20
2016-09-25T11:35:12.199Z,59.20
2016-09-25T11:36:14.199Z,59.20
2016-09-25T11:37:13.380Z,59.20
2016-09-25T11:38:09.819Z,is
2016-09-25T11:39:13.407Z,55.90
2016-09-25T11:40:11.935Z,56.00
2016-09-25T11:41:11.939Z,52.50
2016-09-25T11:42:12.919Z,52.80
2016-09-25T11:43:13.408Z,52.50
2016-09-25T11:44:10.261Z,is
2016-09-25T11:45:11.579Z,52.30
2016-09-25T11:46:12.268Z,52.40
2016-09-25T11:47:13.321Z,52.40
2016-09-25T11:48:11.879Z,51.70
2016-09-25T11:49:12.615Z,52.30
2016-09-25T11:50:13.296Z,52.40
2016-09-25T11:51:13.595Z,52.00
2016-09-25T11:52:13.819Z,51.90
2016-09-25T11:53:13.829Z,51.80
2016-09-25T11:54:13.084Z,51.60
2016-09-25T11:55:14.549Z,52.00
2016-09-25T11:56:13.016Z,51.80
2016-09-25T11:57:12.134Z,51.10
2016-09-25T11:58:11.908Z,51.30
2016-09-25T11:59:12.628Z,51.50
2016-09-25T12:00:11.599Z,51.90
2016-09-25T12:01:12.209Z,51.40
2016-09-25T12:02:14.209Z,51.50
2016-09-25T12:03:12.932Z,51.50
2016-09-25T12:04:14.636Z,51.00
2016-09-25T12:05:11.635Z,50.60
2016-09-25T12:06:12.394Z,50.60
2016-09-25T12:07:12.228Z,51.40
2016-09-25T12:08:12.371Z,51.40
2016-09-25T12:09:12.970Z,50.70
2016-09-25T12:10:14.855Z,51.00
2016-09-25T12:11:11.985Z,51.20
2016-09-25T12:12:13.110Z,51.10
2016-09-25T12:13:12.687Z,51.70
2016-09-25T12:14:13.237Z,51.10
2016-09-25T12:15:14.229Z,50.90
2016-09-25T12:16:11.997Z,50.40
2016-09-25T12:17:13.048Z,50.40
2016-09-25T12:18:12.052Z,49.90
2016-09-25T12:19:12.858Z,50.20
2016-09-25T12:20:12.909Z,50.20
2016-09-25T12:21:13.137Z,50.60
2016-09-25T12:22:12.938Z,49.90
2016-09-25T12:23:10.956Z,is
2016-09-25T12:24:12.532Z,50.40
2016-09-25T12:25:13.270Z,50.70
2016-09-25T12:26:12.331Z,50.60
2016-09-25T12:27:09.680Z,is
2016-09-25T12:28:10.595Z,is
2016-09-25T12:29:12.315Z,51.50
2016-09-25T12:30:12.367Z,51.10
2016-09-25T12:31:12.288Z,51.10
2016-09-25T12:32:11.504Z,49.80
2016-09-25T12:33:12.304Z,49.90
2016-09-25T12:34:11.695Z,50.40
2016-09-25T12:35:13.431Z,50.50
2016-09-25T12:36:11.848Z,50.90
2016-09-25T12:37:13.844Z,51.30
2016-09-25T12:38:11.700Z,51.00
2016-09-25T12:39:12.277Z,50.40
2016-09-25T12:40:12.026Z,49.50
2016-09-25T12:41:13.083Z,49.70
2016-09-25T12:42:12.360Z,49.10
2016-09-25T12:43:12.648Z,49.50
2016-09-25T12:44:11.977Z,49.40
2016-09-25T12:45:10.507Z,is
2016-09-25T12:46:12.113Z,48.70
2016-09-25T12:47:13.157Z,48.90
2016-09-25T12:48:11.843Z,49.00
2016-09-25T12:49:13.342Z,49.40
2016-09-25T12:50:12.640Z,49.10
2016-09-25T12:51:14.074Z,49.40
2016-09-25T12:52:11.628Z,50.00
2016-09-25T12:53:11.999Z,50.00
2016-09-25T12:54:12.317Z,50.00
2016-09-25T12:55:12.414Z,50.10
2016-09-25T12:56:10.156Z,is
2016-09-25T12:57:14.076Z,51.30
2016-09-25T12:58:12.362Z,51.30